Time;durP1;ratioP1;P1;durP2;ratioP2;P2;SDS_P1;SDS_P2;PMS_P1;PMS_P2;Temp;Humidity;BMP_temperature;BMP_pressure;BME280_temperature;BME280_humidity;BME280_pressure;Samples;Min_cycle;Max_cycle;Signal;HPM_P1;HPM_P2
2024/04/22 00:01:09;;;;;;;0.55;0.55;;;;;;;6.59;70.45;99528.16;5525883;26;20037;-68
2024/04/22 00:03:37;;;;;;;1.48;1.38;;;;;;;6.65;70.51;99518.91;5527798;25;20025;-68
2024/04/22 00:06:08;;;;;;;0.52;0.52;;;;;;;6.63;70.13;99520.59;5527533;25;20005;-68
2024/04/22 00:08:38;;;;;;;0.90;0.90;;;;;;;6.64;70.45;99526.53;5528121;26;20009;-69
2024/04/22 00:11:09;;;;;;;0.82;0.82;;;;;;;6.62;70.13;99508.72;5527667;26;20073;-68
2024/04/22 00:13:37;;;;;;;0.40;0.40;;;;;;;6.66;70.64;99520.63;5527806;25;20440;-68
2024/04/22 00:16:08;;;;;;;1.02;0.75;;;;;;;6.67;70.55;99516.44;5527429;25;20008;-68
2024/04/22 00:18:36;;;;;;;0.70;0.70;;;;;;;6.68;70.84;99518.97;5524300;26;20004;-68
2024/04/22 00:21:07;;;;;;;0.45;0.45;;;;;;;6.69;70.25;99515.59;5525659;26;20076;-68
2024/04/22 00:23:35;;;;;;;1.77;1.20;;;;;;;6.67;70.77;99514.72;5525715;26;20001;-67
2024/04/22 00:26:08;;;;;;;0.80;0.80;;;;;;;6.69;70.25;99515.59;5527472;25;20527;-68
2024/04/22 00:28:37;;;;;;;0.47;0.47;;;;;;;6.71;70.47;99511.41;5527465;26;20068;-68
2024/04/22 00:31:08;;;;;;;0.55;0.55;;;;;;;6.72;70.62;99520.69;5525568;26;20012;-68
2024/04/22 00:33:36;;;;;;;1.48;0.93;;;;;;;6.71;70.55;99508.88;5527583;25;20012;-68
2024/04/22 00:36:07;;;;;;;0.85;0.85;;;;;;;6.74;71.03;99519.03;5527169;26;20331;-68
2024/04/22 00:38:35;;;;;;;0.30;0.30;;;;;;;6.77;70.49;99512.31;5527256;26;20068;-67
2024/04/22 00:41:08;;;;;;;3.15;0.75;;;;;;;6.69;70.53;99510.50;5527590;25;20069;-68
2024/04/22 00:43:36;;;;;;;0.70;0.70;;;;;;;6.70;70.66;99512.22;5527494;26;19998;-68
2024/04/22 00:46:07;;;;;;;0.85;0.77;;;;;;;6.71;70.26;99513.94;5525267;26;20067;-69
2024/04/22 00:48:35;;;;;;;1.10;0.80;;;;;;;6.62;70.51;99498.59;5526875;26;20009;-69
2024/04/22 00:51:06;;;;;;;1.08;0.98;;;;;;;6.67;70.38;99512.19;5526918;26;20016;-68
2024/04/22 00:53:34;;;;;;;0.63;0.63;;;;;;;6.69;70.95;99504.63;5527099;26;20025;-68
2024/04/22 00:56:05;;;;;;;1.70;1.52;;;;;;;6.68;70.51;99508.81;5525043;26;20069;-68
2024/04/22 00:58:38;;;;;;;0.68;0.68;;;;;;;6.69;70.78;99512.22;5527298;25;20012;-69
2024/04/22 01:01:12;;;;;;;0.80;0.80;;;;;;;6.69;70.52;99510.50;5526873;25;20010;-67
2024/04/22 01:03:41;;;;;;;0.68;0.68;;;;;;;6.66;70.57;99507.97;5526684;26;20335;-69
2024/04/22 01:06:11;;;;;;;0.63;0.63;;;;;;;6.68;71.04;99513.91;5526621;25;20016;-68
2024/04/22 01:08:39;;;;;;;0.82;0.82;;;;;;;6.72;70.91;99510.56;5526925;26;20013;-67
2024/04/22 01:11:10;;;;;;;1.73;1.63;;;;;;;6.71;70.50;99513.94;5526523;25;20340;-68
2024/04/22 01:13:41;;;;;;;0.55;0.52;;;;;;;6.75;70.43;99515.66;5526451;25;20008;-68
2024/04/22 01:16:12;;;;;;;0.88;0.88;;;;;;;6.35;71.04;99455.19;5526853;25;20002;-67
2024/04/22 01:18:42;;;;;;;0.73;0.73;;;;;;;6.73;70.89;99516.47;5526571;26;20012;-67
2024/04/22 01:21:12;;;;;;;;;;;;;;;6.74;70.80;99519.03;5527308;25;19997;-67
2024/04/22 01:23:45;;;;;;;0.70;0.65;;;;;;;6.79;70.86;99525.84;5526786;26;19968;-68
2024/04/22 01:26:16;;;;;;;3.30;1.15;;;;;;;6.79;70.66;99528.41;5524883;26;20041;-69
2024/04/22 01:28:43;;;;;;;1.05;1.00;;;;;;;6.79;71.14;99520.78;5524718;26;19998;-67
2024/04/22 01:31:14;;;;;;;0.52;0.52;;;;;;;6.80;70.53;99532.63;5526321;26;20379;-68
2024/04/22 01:33:42;;;;;;;1.38;1.27;;;;;;;6.81;70.60;99524.19;5526040;26;20005;-68
2024/04/22 01:36:13;;;;;;;0.98;0.82;;;;;;;6.71;71.12;99524.09;5529608;25;20011;-67
2024/04/22 01:38:44;;;;;;;2.95;1.65;;;;;;;6.79;71.20;99541.06;5529870;25;19997;-67
2024/04/22 01:41:15;;;;;;;1.08;0.75;;;;;;;6.81;71.27;99534.34;5530271;25;19994;-67
2024/04/22 01:43:43;;;;;;;0.70;0.70;;;;;;;6.83;71.13;99542.81;5529865;26;20002;-68
2024/04/22 01:46:13;;;;;;;0.70;0.70;;;;;;;6.83;70.80;99547.88;5529776;25;20005;-68
2024/04/22 01:48:41;;;;;;;0.47;0.47;;;;;;;6.81;71.16;99539.41;5530227;25;20008;-68
2024/04/22 01:51:12;;;;;;;0.65;0.65;;;;;;;6.81;70.56;99547.00;5529532;26;20448;-68
2024/04/22 01:53:40;;;;;;;1.17;1.05;;;;;;;6.79;71.08;99536.00;5529746;25;20001;-68
2024/04/22 01:56:13;;;;;;;0.40;0.40;;;;;;;6.81;71.23;99544.47;5529569;25;20008;-67
2024/04/22 01:58:41;;;;;;;0.30;0.30;;;;;;;6.82;71.02;99541.09;5529568;26;19998;-68
2024/04/22 02:01:11;;;;;;;0.95;0.80;;;;;;;6.71;71.49;99529.16;5529848;25;19997;-68
2024/04/22 02:03:39;;;;;;;0.50;0.50;;;;;;;6.83;70.99;99550.41;5529531;26;20050;-68
2024/04/22 02:06:10;;;;;;;0.45;0.45;;;;;;;6.84;71.35;99549.59;5529398;26;20034;-68
2024/04/22 02:08:38;;;;;;;0.40;0.40;;;;;;;6.79;71.53;99546.16;5529727;25;20005;-67
2024/04/22 02:11:08;;;;;;;0.47;0.47;;;;;;;6.80;71.55;99546.16;5529196;25;20001;-68
2024/04/22 02:13:39;;;;;;;0.40;0.40;;;;;;;6.73;71.03;99532.56;5529182;26;20016;-67
2024/04/22 02:16:10;;;;;;;0.70;0.70;;;;;;;6.74;71.48;99539.31;5527777;26;19997;-67
2024/04/22 02:18:38;;;;;;;0.30;0.30;;;;;;;6.73;71.38;99541.84;5529789;25;20012;-68
2024/04/22 02:21:09;;;;;;;0.50;0.50;;;;;;;6.73;71.31;99537.63;5529487;25;20033;-68
2024/04/22 02:23:37;;;;;;;0.45;0.45;;;;;;;6.70;71.58;99540.13;5529575;26;20009;-67
2024/04/22 02:26:07;;;;;;;0.45;0.45;;;;;;;6.77;71.31;99542.75;5527509;26;20022;-69
2024/04/22 02:28:35;;;;;;;0.60;0.60;;;;;;;6.75;71.64;99543.56;5529413;25;20077;-68
2024/04/22 02:31:08;;;;;;;0.40;0.40;;;;;;;6.58;71.34;99532.34;5527125;26;20074;-71
2024/04/22 02:33:36;;;;;;;0.40;0.40;;;;;;;6.69;71.66;99546.00;5527625;26;20001;-69
2024/04/22 02:36:08;;;;;;;1.85;1.52;;;;;;;6.67;71.17;99555.28;5529013;25;20013;-67
2024/04/22 02:38:36;;;;;;;3.95;1.75;;;;;;;6.72;71.73;99558.72;5529085;25;19997;-68
2024/04/22 02:41:06;;;;;;;0.80;0.80;;;;;;;6.69;71.90;99540.94;5528860;26;20004;-66
2024/04/22 02:43:35;;;;;;;0.32;0.32;;;;;;;6.77;71.80;99555.44;5529470;25;19998;-66
2024/04/22 02:46:08;;;;;;;0.82;0.82;;;;;;;6.75;71.95;99560.47;5527630;25;20408;-68
2024/04/22 02:48:36;;;;;;;0.43;0.43;;;;;;;6.75;72.08;99561.31;5529175;26;19997;-67
2024/04/22 02:51:07;;;;;;;0.68;0.68;;;;;;;6.73;71.83;99552.84;5527022;26;20339;-68
2024/04/22 02:53:35;;;;;;;0.57;0.55;;;;;;;6.72;72.43;99558.72;5496083;26;19997;-68
2024/04/22 02:56:06;;;;;;;0.65;0.65;;;;;;;6.72;72.62;99561.28;5528777;25;19998;-69
2024/04/22 02:58:34;;;;;;;2.20;0.88;;;;;;;6.59;72.70;99539.16;5528781;26;20502;-67
2024/04/22 03:01:10;;;;;;;0.52;0.52;;;;;;;6.68;72.77;99549.41;5528638;26;20133;-68
2024/04/22 03:03:38;;;;;;;0.40;0.40;;;;;;;6.64;72.99;99552.72;5528760;26;20008;-68
2024/04/22 03:06:09;;;;;;;0.50;0.50;;;;;;;6.59;73.05;99554.34;5528659;25;19998;-67
2024/04/22 03:08:37;;;;;;;0.52;0.52;;;;;;;6.56;73.53;99554.31;5528830;25;20033;-68
2024/04/22 03:11:08;;;;;;;0.47;0.47;;;;;;;6.56;73.47;99551.78;5528860;25;19993;-67
2024/04/22 03:13:36;;;;;;;0.93;0.85;;;;;;;6.54;73.67;99555.13;5528707;25;20026;-68
2024/04/22 03:16:07;;;;;;;0.68;0.68;;;;;;;6.55;73.71;99544.16;5528360;25;20538;-68
2024/04/22 03:18:37;;;;;;;0.77;0.77;;;;;;;6.54;73.78;99553.44;5528418;25;20503;-69
2024/04/22 03:21:08;;;;;;;0.35;0.35;;;;;;;6.49;73.49;99552.53;5528457;25;20455;-68
2024/04/22 03:23:36;;;;;;;0.50;0.50;;;;;;;6.48;73.87;99550.81;5528457;25;20008;-68
2024/04/22 03:26:06;;;;;;;1.45;1.35;;;;;;;6.42;74.11;99538.06;5528222;25;20346;-67
2024/04/22 03:28:37;;;;;;;0.70;0.70;;;;;;;6.46;73.84;99555.00;5528684;25;20009;-68
2024/04/22 03:31:08;;;;;;;1.10;1.08;;;;;;;6.41;74.07;99559.16;5528230;26;19997;-67
2024/04/22 03:33:38;;;;;;;0.50;0.50;;;;;;;6.44;74.58;99561.75;5527997;25;20069;-66
2024/04/22 03:36:10;;;;;;;1.05;1.00;;;;;;;6.44;74.34;99555.81;5528196;25;19998;-67
2024/04/22 03:38:41;;;;;;;0.68;0.68;;;;;;;6.40;74.45;99557.47;5528542;26;20450;-67
2024/04/22 03:41:12;;;;;;;1.60;1.10;;;;;;;6.45;74.88;99566.00;5528315;25;20452;-67
2024/04/22 03:43:43;;;;;;;0.38;0.38;;;;;;;6.45;74.53;99566.00;5526801;26;19997;-69
2024/04/22 03:51:34;;;;;;;1.55;0.60;;;;;;;6.44;75.24;99569.34;5527953;25;20005;-67
2024/04/22 03:54:05;;;;;;;0.50;0.50;;;;;;;6.30;75.04;99545.50;5525914;26;20001;-69
2024/04/22 03:56:36;;;;;;;0.40;0.40;;;;;;;6.41;74.94;99578.59;5526238;26;20005;-70
2024/04/22 03:59:06;;;;;;;0.98;0.98;;;;;;;6.34;75.09;99577.66;5527747;25;19997;-68
2024/04/22 04:01:34;;;;;;;0.43;0.43;;;;;;;6.31;74.99;99564.09;5527626;26;20008;-67
2024/04/22 04:04:07;;;;;;;0.57;0.57;;;;;;;6.37;75.14;99581.91;5526293;26;20008;-68
2024/04/22 04:06:38;;;;;;;1.55;1.45;;;;;;;6.30;75.31;99583.53;5528065;25;20001;-68
2024/04/22 04:09:06;;;;;;;0.60;0.60;;;;;;;6.29;75.09;99589.41;5527761;25;19998;-68
2024/04/22 04:11:39;;;;;;;1.63;1.52;;;;;;;6.29;75.43;99584.34;5527636;25;20005;-69
2024/04/22 04:14:07;;;;;;;0.32;0.32;;;;;;;6.29;75.07;99584.34;5527657;25;20332;-68
2024/04/22 04:16:38;;;;;;;0.60;0.55;;;;;;;6.28;75.06;99590.25;5525696;26;20037;-67
2024/04/22 04:19:08;;;;;;;0.28;0.28;;;;;;;6.20;74.90;99589.28;5527926;26;20002;-69
2024/04/22 04:21:40;;;;;;;0.90;0.90;;;;;;;6.20;74.97;99589.28;5527811;25;20013;-68
2024/04/22 04:24:08;;;;;;;1.95;1.27;;;;;;;6.21;75.14;99598.59;5526480;26;20005;-67
2024/04/22 04:26:38;;;;;;;0.70;0.70;;;;;;;6.17;74.97;99596.81;5527726;25;20451;-68
2024/04/22 04:29:07;;;;;;;0.75;0.75;;;;;;;5.99;75.18;99568.69;5527379;25;20071;-68
2024/04/22 04:31:38;;;;;;;0.98;0.98;;;;;;;6.18;75.42;99605.28;5527321;26;20073;-69
2024/04/22 04:34:08;;;;;;;1.95;1.77;;;;;;;6.14;75.01;99609.47;5527144;26;20013;-66
2024/04/22 04:36:40;;;;;;;1.15;1.13;;;;;;;6.17;75.52;99608.66;5527195;25;20385;-68
2024/04/22 04:39:08;;;;;;;1.55;0.93;;;;;;;6.10;75.65;99605.16;5525189;26;20002;-68
2024/04/22 04:41:38;;;;;;;1.52;1.42;;;;;;;6.16;75.40;99612.88;5527072;26;20018;-67
2024/04/22 04:44:07;;;;;;;5.93;1.45;;;;;;;6.16;75.49;99612.88;5527806;25;20029;-67
2024/04/22 04:46:38;;;;;;;1.13;1.02;;;;;;;6.18;75.46;99621.34;5525217;26;20069;-68
2024/04/22 04:49:10;;;;;;;0.50;0.50;;;;;;;6.17;75.68;99614.56;5527057;25;20323;-67
2024/04/22 04:51:41;;;;;;;1.25;1.02;;;;;;;6.16;75.62;99620.47;5526989;25;20393;-67
2024/04/22 04:54:09;;;;;;;3.83;1.95;;;;;;;6.15;75.89;99613.69;5524921;26;20009;-68
2024/04/22 04:56:39;;;;;;;0.90;0.77;;;;;;;6.12;75.67;99620.41;5527076;26;20008;-68
2024/04/22 04:59:08;;;;;;;0.77;0.77;;;;;;;6.14;75.69;99624.66;5527145;26;20013;-68
2024/04/22 05:01:38;;;;;;;1.15;1.05;;;;;;;6.16;75.67;99628.06;5525003;26;19993;-68
2024/04/22 05:04:09;;;;;;;1.23;1.00;;;;;;;6.24;75.67;99631.56;5527198;26;20017;-67
2024/04/22 05:06:40;;;;;;;0.80;0.80;;;;;;;6.28;75.83;99638.41;5526430;25;19994;-68
2024/04/22 05:09:07;;;;;;;1.20;1.10;;;;;;;6.24;75.57;99626.50;5525390;26;20005;-68
2024/04/22 05:11:38;;;;;;;0.90;0.90;;;;;;;6.22;75.42;99628.16;5530528;25;20008;-67
2024/04/22 05:14:06;;;;;;;0.50;0.50;;;;;;;6.22;75.32;99632.34;5530052;25;20347;-67
2024/04/22 05:16:36;;;;;;;0.40;0.40;;;;;;;6.18;75.33;99631.47;5529988;26;20042;-68
2024/04/22 05:19:05;;;;;;;0.98;0.95;;;;;;;6.18;75.19;99635.69;5530569;25;20012;-66
2024/04/22 05:21:38;;;;;;;1.30;1.17;;;;;;;6.11;75.77;99629.69;5530131;25;20511;-68
2024/04/22 05:24:10;;;;;;;0.52;0.52;;;;;;;6.09;75.61;99636.41;5530549;25;20069;-68
2024/04/22 05:26:40;;;;;;;1.13;1.05;;;;;;;6.02;75.64;99629.53;5530511;25;20006;-68
2024/04/22 05:29:08;;;;;;;1.50;0.63;;;;;;;6.07;75.24;99641.41;5528430;26;19997;-67
2024/04/22 05:31:39;;;;;;;0.75;0.63;;;;;;;6.12;75.80;99638.97;5529938;26;20073;-67
2024/04/22 05:36:52;;;;;;;;;;;;;;;6.15;75.38;99641.56;5530764;26;20025;-68
2024/04/22 05:39:22;;;;;;;0.40;0.40;;;;;;;6.17;75.17;99644.97;5530236;25;19924;-68
2024/04/22 05:41:53;;;;;;;0.75;0.75;;;;;;;6.12;75.45;99640.66;5527997;26;20471;-69
2024/04/22 05:44:23;;;;;;;0.68;0.68;;;;;;;6.16;75.59;99650.88;5529751;26;20014;-68
2024/04/22 05:46:54;;;;;;;0.75;0.75;;;;;;;5.95;75.35;99597.34;5530178;25;20439;-68
2024/04/22 05:49:25;;;;;;;0.60;0.60;;;;;;;6.28;75.56;99648.53;5529811;26;20412;-68
2024/04/22 05:51:59;;;;;;;1.13;1.02;;;;;;;6.25;75.52;99637.47;5529953;25;20013;-65
2024/04/22 05:54:34;;;;;;;0.88;0.82;;;;;;;6.41;75.33;99650.41;5529714;26;20029;-68
2024/04/22 05:57:03;;;;;;;0.60;0.60;;;;;;;6.43;75.21;99663.97;5528224;26;19998;-66
2024/04/22 05:59:33;;;;;;;0.65;0.65;;;;;;;6.46;75.14;99658.94;5527617;26;20002;-67
2024/04/22 06:02:01;;;;;;;0.50;0.50;;;;;;;6.55;75.07;99664.16;5530347;25;20427;-67
2024/04/22 06:04:32;;;;;;;0.70;0.70;;;;;;;6.56;74.90;99658.25;5529445;25;20013;-68
2024/04/22 06:07:03;;;;;;;0.50;0.50;;;;;;;6.67;74.61;99659.25;5529070;26;20025;-67
2024/04/22 06:09:34;;;;;;;1.00;0.80;;;;;;;6.79;74.54;99670.41;5529141;26;20010;-67
2024/04/22 06:12:06;;;;;;;0.35;0.35;;;;;;;6.76;74.23;99668.69;5529027;26;20005;-67
2024/04/22 06:14:46;;;;;;;0.90;0.82;;;;;;;6.80;74.30;99664.50;5529119;26;20005;-66
2024/04/22 06:17:17;;;;;;;0.65;0.65;;;;;;;6.90;74.08;99663.81;5529118;25;19998;-69
2024/04/22 06:19:45;;;;;;;2.13;1.73;;;;;;;6.97;73.55;99668.13;5529042;26;20336;-68
2024/04/22 06:22:18;;;;;;;6.88;1.30;;;;;;;6.95;72.95;99674.88;5527689;26;19997;-69
2024/04/22 06:24:48;;;;;;;0.73;0.73;;;;;;;6.85;72.98;99652.72;5529520;25;19997;-66
2024/04/22 06:27:18;;;;;;;2.03;1.63;;;;;;;7.03;72.63;99669.03;5529346;25;20005;-68
2024/04/22 06:29:47;;;;;;;1.02;0.98;;;;;;;6.98;72.35;99652.09;5529431;25;20434;-67
2024/04/22 06:32:18;;;;;;;0.88;0.88;;;;;;;7.18;72.38;99678.53;5528747;25;20519;-67
2024/04/22 06:34:46;;;;;;;0.85;0.80;;;;;;;7.32;72.19;99688.03;5528555;25;20001;-68
2024/04/22 06:37:22;;;;;;;0.95;0.93;;;;;;;7.30;71.32;99673.63;5528899;25;20002;-66
2024/04/22 06:39:50;;;;;;;0.30;0.30;;;;;;;7.31;71.04;99690.56;5529131;26;20002;-69
2024/04/22 06:42:21;;;;;;;2.95;1.77;;;;;;;7.18;70.79;99688.69;5529196;26;19997;-67
2024/04/22 06:44:50;;;;;;;1.45;1.05;;;;;;;7.21;70.36;99689.59;5529115;25;19997;-69
2024/04/22 06:47:20;;;;;;;0.40;0.40;;;;;;;7.34;70.68;99695.69;5528884;26;20124;-70
2024/04/22 06:49:48;;;;;;;0.70;0.70;;;;;;;7.44;70.36;99694.94;5529215;25;20001;-66
2024/04/22 06:52:21;;;;;;;0.70;0.70;;;;;;;7.44;69.59;99692.41;5528607;25;20020;-68
2024/04/22 06:54:49;;;;;;;0.52;0.52;;;;;;;7.47;69.81;99702.59;5528764;26;20009;-67
2024/04/22 06:57:20;;;;;;;0.40;0.40;;;;;;;7.48;69.03;99694.16;5528815;25;20020;-69
2024/04/22 06:59:48;;;;;;;0.20;0.20;;;;;;;7.48;69.22;99693.31;5528686;26;20009;-70
2024/04/22 07:02:18;;;;;;;0.45;0.45;;;;;;;7.51;69.11;99699.25;5528708;26;20074;-66
2024/04/22 07:04:50;;;;;;;0.50;0.50;;;;;;;7.52;69.12;99680.66;5529052;26;20012;-67
2024/04/22 07:07:23;;;;;;;0.80;0.80;;;;;;;7.62;68.44;99682.47;5528151;25;20002;-68
2024/04/22 07:09:51;;;;;;;0.77;0.77;;;;;;;7.69;68.50;99709.66;5526779;26;20006;-68
2024/04/22 07:12:22;;;;;;;0.77;0.77;;;;;;;7.55;67.72;99695.94;5528409;26;20309;-67
2024/04/22 07:14:50;;;;;;;0.55;0.55;;;;;;;7.78;68.25;99717.34;5527002;26;20008;-68
2024/04/22 07:17:22;;;;;;;0.80;0.63;;;;;;;7.97;67.64;99714.16;5528431;25;20012;-66
2024/04/22 07:19:50;;;;;;;0.47;0.47;;;;;;;7.94;67.04;99716.69;5526664;26;20026;-67
2024/04/22 07:22:27;;;;;;;0.38;0.38;;;;;;;7.77;65.93;99715.66;5528310;25;20331;-68
2024/04/22 07:24:55;;;;;;;0.82;0.77;;;;;;;7.66;65.64;99724.84;5528533;25;20080;-68
2024/04/22 07:27:34;;;;;;;0.40;0.40;;;;;;;7.54;65.70;99714.53;5528290;25;20002;-67
2024/04/22 07:30:04;;;;;;;0.40;0.40;;;;;;;7.69;65.84;99724.88;5528505;26;20008;-67
2024/04/22 07:32:37;;;;;;;0.30;0.30;;;;;;;7.70;65.82;99698.63;5527519;25;20339;-66
2024/04/22 07:35:06;;;;;;;0.40;0.40;;;;;;;7.86;65.98;99725.94;5528169;25;19998;-67
2024/04/22 07:37:44;;;;;;;0.35;0.35;;;;;;;8.00;65.62;99721.84;5528136;25;20017;-65
2024/04/22 07:40:14;;;;;;;0.40;0.40;;;;;;;8.01;65.52;99723.53;5527964;26;20009;-68
2024/04/22 07:42:46;;;;;;;0.32;0.32;;;;;;;8.01;65.29;99730.31;5528118;25;20001;-69
2024/04/22 07:45:16;;;;;;;0.40;0.40;;;;;;;7.85;64.91;99736.06;5528131;26;19997;-67
2024/04/22 07:47:49;;;;;;;0.40;0.40;;;;;;;7.87;64.51;99745.41;5526193;26;20021;-66
2024/04/22 07:50:17;;;;;;;0.40;0.40;;;;;;;7.89;64.16;99733.56;5526322;26;20073;-67
2024/04/22 07:52:52;;;;;;;0.88;0.88;;;;;;;8.02;63.97;99740.50;5527801;26;20073;-68
2024/04/22 07:55:21;;;;;;;0.77;0.73;;;;;;;8.20;63.56;99741.50;5528048;25;20001;-69
2024/04/22 07:57:52;;;;;;;0.45;0.45;;;;;;;8.33;63.13;99735.72;5527767;25;20068;-70
2024/04/22 08:00:22;;;;;;;0.40;0.40;;;;;;;8.35;62.63;99734.91;5527891;26;20080;-69
2024/04/22 08:02:54;;;;;;;0.40;0.40;;;;;;;8.40;62.04;99745.09;5527823;26;20072;-67
2024/04/22 08:05:23;;;;;;;0.30;0.30;;;;;;;8.39;62.33;99739.19;5527516;25;20347;-68
2024/04/22 08:08:01;;;;;;;0.33;0.33;;;;;;;8.50;61.84;99749.44;5527811;25;20023;-65
2024/04/22 08:10:29;;;;;;;0.80;0.60;;;;;;;8.44;61.34;99744.31;5525729;26;20005;-64
2024/04/22 08:13:01;;;;;;;0.30;0.30;;;;;;;8.59;61.90;99749.53;5527307;26;20001;-69
2024/04/22 08:15:29;;;;;;;2.28;0.60;;;;;;;8.61;61.84;99752.94;5527673;25;20001;-69
2024/04/22 08:18:00;;;;;;;0.30;0.30;;;;;;;8.67;61.71;99755.53;5527819;25;19997;-67
2024/04/22 08:20:28;;;;;;;0.30;0.30;;;;;;;8.43;61.18;99733.28;5527674;25;20025;-67
2024/04/22 08:23:02;;;;;;;0.40;0.40;;;;;;;8.52;61.12;99763.00;5527375;26;20327;-67
2024/04/22 08:25:30;;;;;;;0.43;0.43;;;;;;;8.40;60.96;99761.22;5527481;26;20448;-65
2024/04/22 08:28:00;;;;;;;1.13;1.02;;;;;;;8.29;61.30;99764.50;5527597;25;19997;-68
2024/04/22 08:30:28;;;;;;;0.30;0.30;;;;;;;8.38;61.36;99774.75;5527431;25;20040;-69
2024/04/22 08:32:59;;;;;;;0.32;0.32;;;;;;;8.38;60.90;99774.75;5526955;25;19998;-65
2024/04/22 08:35:28;;;;;;;0.40;0.40;;;;;;;8.30;60.76;99771.31;5525539;26;20074;-67
2024/04/22 08:38:01;;;;;;;0.85;0.85;;;;;;;8.16;61.14;99760.13;5525097;26;19998;-69
2024/04/22 08:40:29;;;;;;;0.30;0.30;;;;;;;8.21;60.74;99768.63;5527205;25;19998;-69
2024/04/22 08:43:00;;;;;;;0.30;0.30;;;;;;;8.21;60.76;99776.25;5527122;25;20017;-68
2024/04/22 08:45:30;;;;;;;0.43;0.43;;;;;;;8.28;60.98;99778.06;5525612;25;20034;-68
2024/04/22 08:48:02;;;;;;;0.45;0.45;;;;;;;8.37;60.97;99773.06;5527403;25;20013;-68
2024/04/22 08:50:30;;;;;;;0.30;0.30;;;;;;;8.35;60.85;99770.50;5527260;25;20008;-65
2024/04/22 08:53:08;;;;;;;0.30;0.30;;;;;;;8.38;60.55;99779.84;5526704;26;20313;-66
2024/04/22 08:55:37;;;;;;;0.40;0.40;;;;;;;8.43;59.56;99783.28;5526862;25;20376;-65
2024/04/22 08:58:08;;;;;;;0.57;0.57;;;;;;;8.41;59.60;99774.78;5525353;26;20009;-67
2024/04/22 09:00:36;;;;;;;0.40;0.40;;;;;;;8.60;59.43;99779.22;5526857;25;20001;-67
2024/04/22 09:03:07;;;;;;;0.28;0.28;;;;;;;8.62;59.51;99762.25;5526744;25;19997;-67
2024/04/22 09:05:35;;;;;;;0.30;0.30;;;;;;;8.76;59.29;99771.72;5526474;25;20009;-68
2024/04/22 09:08:12;;;;;;;1.55;1.05;;;;;;;8.77;59.46;99760.72;5524604;26;20001;-68
2024/04/22 09:10:41;;;;;;;1.00;1.00;;;;;;;8.88;59.73;99768.41;5526542;26;20009;-67
2024/04/22 09:13:32;;;;;;;0.38;0.38;;;;;;;8.82;59.71;99757.34;5524984;26;20009;-68
2024/04/22 09:16:01;;;;;;;0.35;0.35;;;;;;;8.94;59.69;99770.16;5525016;26;19998;-68
2024/04/22 09:18:32;;;;;;;0.40;0.40;;;;;;;9.04;59.44;99772.78;5526150;25;20016;-65
2024/04/22 09:21:04;;;;;;;0.30;0.30;;;;;;;9.06;58.97;99773.66;5526347;26;20009;-67
2024/04/22 09:23:40;;;;;;;1.75;1.38;;;;;;;9.16;59.30;99765.22;5526666;26;20038;-68
2024/04/22 09:26:10;;;;;;;0.40;0.40;;;;;;;9.17;58.64;99771.16;5526232;26;19997;-65
2024/04/22 09:28:41;;;;;;;0.30;0.30;;;;;;;9.21;57.68;99763.53;5526814;25;19998;-67
2024/04/22 09:31:09;;;;;;;0.43;0.43;;;;;;;9.59;57.43;99755.25;5526171;26;19998;-68
2024/04/22 09:33:41;;;;;;;0.40;0.40;;;;;;;9.84;56.92;99767.22;5525997;25;20009;-69
2024/04/22 09:36:11;;;;;;;0.60;0.60;;;;;;;10.16;55.85;99760.56;5523489;26;19998;-68
2024/04/22 09:38:47;;;;;;;0.70;0.70;;;;;;;9.95;54.75;99748.59;5524202;26;20488;-68
2024/04/22 09:41:19;;;;;;;0.40;0.40;;;;;;;10.04;55.04;99750.31;5525832;26;20016;-67
2024/04/22 09:43:55;;;;;;;0.30;0.30;;;;;;;9.94;55.29;99749.44;5524170;26;20458;-66
2024/04/22 09:46:33;;;;;;;0.68;0.68;;;;;;;10.16;55.53;99755.47;5526005;25;19993;-66
2024/04/22 09:49:08;;;;;;;0.75;0.75;;;;;;;10.46;55.02;99744.47;5523802;26;20028;-66
2024/04/22 09:51:38;;;;;;;0.63;0.63;;;;;;;10.54;53.68;99738.50;5523937;26;20440;-67
2024/04/22 09:54:11;;;;;;;0.50;0.50;;;;;;;10.10;54.06;99740.97;5525628;26;20348;-69
2024/04/22 09:56:40;;;;;;;0.50;0.50;;;;;;;10.36;54.27;99758.06;5528803;26;19998;-67
2024/04/22 09:59:11;;;;;;;0.30;0.30;;;;;;;10.41;54.41;99757.22;5527796;26;20009;-67
2024/04/22 10:01:39;;;;;;;0.40;0.40;;;;;;;10.54;54.21;99758.91;5529666;25;20008;-65
2024/04/22 10:04:12;;;;;;;0.82;0.70;;;;;;;10.64;54.51;99760.63;5529700;26;20001;-66
2024/04/22 10:06:40;;;;;;;0.40;0.40;;;;;;;10.46;53.63;99769.97;5527558;26;20005;-65
2024/04/22 10:09:18;;;;;;;1.27;1.15;;;;;;;10.42;53.82;99763.16;5529203;26;20001;-64
2024/04/22 10:11:47;;;;;;;0.80;0.80;;;;;;;10.46;53.66;99765.72;5529600;25;20006;-67
2024/04/22 10:14:19;;;;;;;0.43;0.43;;;;;;;10.51;53.83;99769.13;5527513;26;20009;-67
2024/04/22 10:16:55;;;;;;;0.77;0.77;;;;;;;10.45;53.58;99769.13;5529308;25;19998;-67
2024/04/22 10:19:29;;;;;;;0.50;0.50;;;;;;;10.46;52.92;99778.47;5529596;25;20001;-66
2024/04/22 10:22:01;;;;;;;1.13;0.93;;;;;;;10.74;52.70;99772.56;5529574;25;20005;-68
2024/04/22 10:24:39;;;;;;;0.47;0.47;;;;;;;10.75;51.96;99774.22;5529489;25;20016;-66
2024/04/22 10:27:09;;;;;;;0.40;0.40;;;;;;;10.76;52.47;99781.06;5529620;26;20470;-68
2024/04/22 10:29:44;;;;;;;0.30;0.30;;;;;;;10.32;52.17;99780.16;5529301;25;20012;-65
2024/04/22 10:32:12;;;;;;;1.00;0.77;;;;;;;10.23;52.54;99776.72;5529129;25;20001;-67
2024/04/22 10:34:45;;;;;;;0.30;0.30;;;;;;;10.33;52.58;99784.41;5528984;25;20005;-67
2024/04/22 10:37:13;;;;;;;0.50;0.50;;;;;;;10.28;52.46;99755.50;5529097;26;20013;-67
2024/04/22 10:39:47;;;;;;;0.68;0.68;;;;;;;10.37;52.79;99770.81;5528854;25;20036;-67
2024/04/22 10:42:15;;;;;;;0.30;0.30;;;;;;;10.62;53.26;99771.69;5527419;26;20013;-66
2024/04/22 10:44:47;;;;;;;1.07;0.97;;;;;;;10.66;52.71;99763.16;5529061;25;20002;-66
2024/04/22 10:47:15;;;;;;;0.30;0.30;;;;;;;10.97;52.56;99761.44;5529170;25;20402;-66
2024/04/22 10:49:48;;;;;;;0.65;0.65;;;;;;;11.31;51.64;99761.41;5528856;25;20001;-65
2024/04/22 10:52:16;;;;;;;0.50;0.50;;;;;;;11.37;50.58;99765.66;5528873;25;20001;-65
2024/04/22 10:54:49;;;;;;;0.50;0.50;;;;;;;11.03;50.70;99766.56;5526859;26;20021;-65
2024/04/22 10:57:21;;;;;;;0.50;0.50;;;;;;;10.69;51.20;99758.06;5528771;25;19997;-66
2024/04/22 10:59:52;;;;;;;0.50;0.50;;;;;;;11.02;51.46;99757.19;5528765;25;20033;-66
2024/04/22 11:02:22;;;;;;;0.35;0.35;;;;;;;11.18;51.20;99738.44;5528823;26;20007;-66
2024/04/22 11:04:57;;;;;;;0.75;0.57;;;;;;;11.26;50.85;99752.91;5528890;25;20009;-67
2024/04/22 11:07:26;;;;;;;0.38;0.38;;;;;;;11.04;50.75;99753.78;5528110;25;20369;-65
2024/04/22 11:10:00;;;;;;;0.40;0.40;;;;;;;11.13;50.64;99741.00;5528461;25;20008;-65
2024/04/22 11:12:31;;;;;;;0.30;0.30;;;;;;;11.20;49.99;99759.72;5528668;26;20030;-69
2024/04/22 11:15:02;;;;;;;0.95;0.90;;;;;;;11.21;50.56;99774.19;5528484;25;20005;-66
2024/04/22 11:17:30;;;;;;;0.52;0.52;;;;;;;11.15;50.65;99779.31;5528473;26;20065;-66
2024/04/22 11:20:13;;;;;;;0.40;0.40;;;;;;;10.97;50.77;99779.31;5528534;26;19997;-67
2024/04/22 11:22:41;;;;;;;0.40;0.40;;;;;;;10.99;51.04;99775.91;5528425;25;20001;-68
2024/04/22 11:25:14;;;;;;;0.40;0.40;;;;;;;11.20;50.53;99773.34;5526814;26;19997;-68
2024/04/22 11:27:42;;;;;;;0.57;0.57;;;;;;;11.18;50.62;99769.09;5528697;25;20001;-68
2024/04/22 11:30:13;;;;;;;0.55;0.55;;;;;;;11.27;50.84;99776.75;5528251;26;20069;-66
2024/04/22 11:32:41;;;;;;;0.40;0.40;;;;;;;11.66;50.62;99774.06;5528441;26;20080;-67
2024/04/22 11:35:12;;;;;;;0.82;0.82;;;;;;;11.54;49.63;99760.50;5528151;26;20007;-67
2024/04/22 11:37:40;;;;;;;0.40;0.40;;;;;;;11.39;50.08;99769.06;5527977;25;20073;-68
2024/04/22 11:40:15;;;;;;;0.63;0.63;;;;;;;11.26;50.66;99769.91;5515019;26;20328;-64
2024/04/22 11:42:44;;;;;;;0.60;0.60;;;;;;;11.48;50.34;99738.34;5510662;26;19998;-65
2024/04/22 11:45:15;;;;;;;0.40;0.40;;;;;;;11.85;49.60;99765.50;5495481;26;20459;-65
2024/04/22 11:47:43;;;;;;;0.50;0.50;;;;;;;12.12;48.81;99767.06;5510584;26;20002;-64
2024/04/22 11:50:14;;;;;;;0.50;0.50;;;;;;;12.32;48.17;99772.06;5491099;26;20074;-65
2024/04/22 11:52:41;;;;;;;0.60;0.60;;;;;;;12.00;48.42;99765.41;5491439;26;20013;-67
2024/04/22 11:55:15;;;;;;;0.55;0.55;;;;;;;11.91;48.83;99768.03;5491072;26;20080;-67
2024/04/22 11:57:43;;;;;;;0.60;0.60;;;;;;;11.95;49.45;99772.25;5491300;26;20014;-67
2024/04/22 12:00:14;;;;;;;0.75;0.73;;;;;;;11.99;49.59;99773.97;5490696;26;19998;-65
2024/04/22 12:02:44;;;;;;;0.55;0.55;;;;;;;11.85;49.06;99780.84;5490815;26;20070;-67
2024/04/22 12:05:15;;;;;;;0.40;0.40;;;;;;;11.62;49.24;99777.50;5490644;26;20010;-66